sensor_id;sensor_type;location;lat;lon;timestamp;P1;durP1;ratioP1;P2;durP2;ratioP2
80675;SDS011;70041;46.088;18.268;2023-07-30T00:00:11;6.38;;;3.05;;
80675;SDS011;70041;46.088;18.268;2023-07-30T00:02:37;7.07;;;3.53;;
80675;SDS011;70041;46.088;18.268;2023-07-30T00:05:02;8.13;;;3.37;;
80675;SDS011;70041;46.088;18.268;2023-07-30T00:07:28;6.47;;;3.35;;
80675;SDS011;70041;46.088;18.268;2023-07-30T00:09:53;6.87;;;3.70;;
80675;SDS011;70041;46.088;18.268;2023-07-30T00:12:21;7.85;;;3.50;;
80675;SDS011;70041;46.088;18.268;2023-07-30T00:14:46;8.00;;;3.27;;
80675;SDS011;70041;46.088;18.268;2023-07-30T00:17:11;6.83;;;3.40;;
80675;SDS011;70041;46.088;18.268;2023-07-30T00:19:37;7.13;;;3.30;;
80675;SDS011;70041;46.088;18.268;2023-07-30T00:22:02;7.37;;;3.37;;
80675;SDS011;70041;46.088;18.268;2023-07-30T00:24:28;7.13;;;3.70;;
80675;SDS011;70041;46.088;18.268;2023-07-30T00:26:53;8.57;;;3.57;;
80675;SDS011;70041;46.088;18.268;2023-07-30T00:29:18;7.33;;;3.30;;
80675;SDS011;70041;46.088;18.268;2023-07-30T00:31:44;7.18;;;3.58;;
80675;SDS011;70041;46.088;18.268;2023-07-30T00:34:10;7.67;;;3.10;;
80675;SDS011;70041;46.088;18.268;2023-07-30T00:36:35;6.43;;;3.10;;
80675;SDS011;70041;46.088;18.268;2023-07-30T00:39:00;8.50;;;3.40;;
80675;SDS011;70041;46.088;18.268;2023-07-30T00:41:26;7.80;;;3.63;;
80675;SDS011;70041;46.088;18.268;2023-07-30T00:43:51;7.73;;;3.60;;
80675;SDS011;70041;46.088;18.268;2023-07-30T00:46:16;8.50;;;3.50;;
80675;SDS011;70041;46.088;18.268;2023-07-30T00:48:42;8.17;;;3.73;;
80675;SDS011;70041;46.088;18.268;2023-07-30T00:51:08;7.70;;;3.63;;
80675;SDS011;70041;46.088;18.268;2023-07-30T00:53:36;9.05;;;3.72;;
80675;SDS011;70041;46.088;18.268;2023-07-30T00:56:02;6.95;;;3.60;;
80675;SDS011;70041;46.088;18.268;2023-07-30T00:58:28;7.53;;;4.10;;
80675;SDS011;70041;46.088;18.268;2023-07-30T01:00:54;6.95;;;3.60;;
80675;SDS011;70041;46.088;18.268;2023-07-30T01:03:20;7.20;;;3.63;;
80675;SDS011;70041;46.088;18.268;2023-07-30T01:05:45;6.70;;;3.60;;
80675;SDS011;70041;46.088;18.268;2023-07-30T01:08:11;7.17;;;3.50;;
80675;SDS011;70041;46.088;18.268;2023-07-30T01:10:36;7.03;;;3.58;;
80675;SDS011;70041;46.088;18.268;2023-07-30T01:13:05;9.70;;;3.70;;
80675;SDS011;70041;46.088;18.268;2023-07-30T01:15:33;6.55;;;3.35;;
80675;SDS011;70041;46.088;18.268;2023-07-30T01:17:59;7.40;;;3.90;;
80675;SDS011;70041;46.088;18.268;2023-07-30T01:20:24;7.13;;;3.70;;
80675;SDS011;70041;46.088;18.268;2023-07-30T01:22:49;10.67;;;3.80;;
80675;SDS011;70041;46.088;18.268;2023-07-30T01:25:15;8.30;;;3.83;;
80675;SDS011;70041;46.088;18.268;2023-07-30T01:27:42;7.40;;;3.72;;
80675;SDS011;70041;46.088;18.268;2023-07-30T01:30:22;8.40;;;4.20;;
80675;SDS011;70041;46.088;18.268;2023-07-30T01:32:52;8.63;;;3.90;;
80675;SDS011;70041;46.088;18.268;2023-07-30T01:35:18;7.70;;;3.90;;
80675;SDS011;70041;46.088;18.268;2023-07-30T01:37:46;9.75;;;4.22;;
80675;SDS011;70041;46.088;18.268;2023-07-30T01:40:13;9.25;;;4.05;;
80675;SDS011;70041;46.088;18.268;2023-07-30T01:42:39;7.82;;;4.07;;
80675;SDS011;70041;46.088;18.268;2023-07-30T01:45:04;8.60;;;4.00;;
80675;SDS011;70041;46.088;18.268;2023-07-30T01:47:30;9.75;;;4.53;;
80675;SDS011;70041;46.088;18.268;2023-07-30T01:49:56;7.60;;;3.70;;
80675;SDS011;70041;46.088;18.268;2023-07-30T01:52:21;7.63;;;3.87;;
80675;SDS011;70041;46.088;18.268;2023-07-30T01:54:47;7.33;;;3.87;;
80675;SDS011;70041;46.088;18.268;2023-07-30T01:57:12;9.30;;;4.00;;
80675;SDS011;70041;46.088;18.268;2023-07-30T01:59:38;7.63;;;3.80;;
80675;SDS011;70041;46.088;18.268;2023-07-30T02:02:04;7.60;;;4.00;;
80675;SDS011;70041;46.088;18.268;2023-07-30T02:04:29;7.43;;;3.80;;
80675;SDS011;70041;46.088;18.268;2023-07-30T02:06:54;6.80;;;3.77;;
80675;SDS011;70041;46.088;18.268;2023-07-30T02:09:20;9.43;;;3.53;;
80675;SDS011;70041;46.088;18.268;2023-07-30T02:11:46;8.02;;;3.67;;
80675;SDS011;70041;46.088;18.268;2023-07-30T02:14:12;6.67;;;3.50;;
80675;SDS011;70041;46.088;18.268;2023-07-30T02:16:37;8.17;;;3.60;;
80675;SDS011;70041;46.088;18.268;2023-07-30T02:19:03;8.82;;;4.18;;
80675;SDS011;70041;46.088;18.268;2023-07-30T02:21:28;8.20;;;3.57;;
80675;SDS011;70041;46.088;18.268;2023-07-30T02:23:57;6.95;;;3.38;;
80675;SDS011;70041;46.088;18.268;2023-07-30T02:26:22;8.70;;;3.50;;
80675;SDS011;70041;46.088;18.268;2023-07-30T02:28:48;8.98;;;3.47;;
80675;SDS011;70041;46.088;18.268;2023-07-30T02:31:13;7.00;;;3.40;;
80675;SDS011;70041;46.088;18.268;2023-07-30T02:33:38;7.77;;;3.70;;
80675;SDS011;70041;46.088;18.268;2023-07-30T02:36:04;7.37;;;3.70;;
80675;SDS011;70041;46.088;18.268;2023-07-30T02:38:29;8.73;;;3.70;;
80675;SDS011;70041;46.088;18.268;2023-07-30T02:40:55;8.37;;;3.60;;
80675;SDS011;70041;46.088;18.268;2023-07-30T02:43:20;7.90;;;2.97;;
80675;SDS011;70041;46.088;18.268;2023-07-30T02:45:48;7.63;;;3.43;;
80675;SDS011;70041;46.088;18.268;2023-07-30T02:48:14;9.57;;;3.42;;
80675;SDS011;70041;46.088;18.268;2023-07-30T02:50:40;6.93;;;3.30;;
80675;SDS011;70041;46.088;18.268;2023-07-30T02:53:05;7.73;;;3.70;;
80675;SDS011;70041;46.088;18.268;2023-07-30T02:55:31;6.37;;;3.00;;
80675;SDS011;70041;46.088;18.268;2023-07-30T02:57:56;8.80;;;3.40;;
80675;SDS011;70041;46.088;18.268;2023-07-30T03:00:21;7.40;;;3.10;;
80675;SDS011;70041;46.088;18.268;2023-07-30T03:02:47;8.03;;;3.00;;
80675;SDS011;70041;46.088;18.268;2023-07-30T03:05:12;5.80;;;2.90;;
80675;SDS011;70041;46.088;18.268;2023-07-30T03:07:38;8.10;;;3.30;;
80675;SDS011;70041;46.088;18.268;2023-07-30T03:10:03;6.67;;;2.90;;
80675;SDS011;70041;46.088;18.268;2023-07-30T03:12:29;9.17;;;3.40;;
80675;SDS011;70041;46.088;18.268;2023-07-30T03:14:54;6.47;;;2.80;;
80675;SDS011;70041;46.088;18.268;2023-07-30T03:17:20;6.53;;;3.40;;
80675;SDS011;70041;46.088;18.268;2023-07-30T03:19:46;5.77;;;2.73;;
80675;SDS011;70041;46.088;18.268;2023-07-30T03:22:11;7.00;;;3.20;;
80675;SDS011;70041;46.088;18.268;2023-07-30T03:24:37;7.83;;;3.07;;
80675;SDS011;70041;46.088;18.268;2023-07-30T03:27:02;7.93;;;3.10;;
80675;SDS011;70041;46.088;18.268;2023-07-30T03:29:28;7.00;;;3.40;;
80675;SDS011;70041;46.088;18.268;2023-07-30T03:31:53;7.70;;;3.17;;
80675;SDS011;70041;46.088;18.268;2023-07-30T03:34:19;7.63;;;3.43;;
80675;SDS011;70041;46.088;18.268;2023-07-30T03:36:44;7.23;;;3.00;;
80675;SDS011;70041;46.088;18.268;2023-07-30T03:39:10;6.17;;;3.10;;
80675;SDS011;70041;46.088;18.268;2023-07-30T03:41:35;6.70;;;2.97;;
80675;SDS011;70041;46.088;18.268;2023-07-30T03:44:01;8.63;;;3.60;;
80675;SDS011;70041;46.088;18.268;2023-07-30T03:46:27;7.63;;;3.70;;
80675;SDS011;70041;46.088;18.268;2023-07-30T03:48:52;8.80;;;3.17;;
80675;SDS011;70041;46.088;18.268;2023-07-30T03:51:18;7.37;;;3.20;;
80675;SDS011;70041;46.088;18.268;2023-07-30T03:53:43;7.03;;;3.37;;
80675;SDS011;70041;46.088;18.268;2023-07-30T03:56:08;6.83;;;3.57;;
80675;SDS011;70041;46.088;18.268;2023-07-30T03:58:34;6.90;;;3.17;;
80675;SDS011;70041;46.088;18.268;2023-07-30T04:01:00;5.97;;;3.13;;
80675;SDS011;70041;46.088;18.268;2023-07-30T04:03:26;6.80;;;3.17;;
80675;SDS011;70041;46.088;18.268;2023-07-30T04:05:51;6.47;;;3.07;;
80675;SDS011;70041;46.088;18.268;2023-07-30T04:08:17;6.67;;;3.30;;
80675;SDS011;70041;46.088;18.268;2023-07-30T04:10:42;8.23;;;3.22;;
80675;SDS011;70041;46.088;18.268;2023-07-30T04:13:08;7.90;;;3.00;;
80675;SDS011;70041;46.088;18.268;2023-07-30T04:15:33;7.57;;;3.27;;
80675;SDS011;70041;46.088;18.268;2023-07-30T04:17:59;6.70;;;3.03;;
80675;SDS011;70041;46.088;18.268;2023-07-30T04:20:24;7.47;;;3.38;;
80675;SDS011;70041;46.088;18.268;2023-07-30T04:22:50;6.83;;;3.10;;
80675;SDS011;70041;46.088;18.268;2023-07-30T04:25:16;6.47;;;3.05;;
80675;SDS011;70041;46.088;18.268;2023-07-30T04:27:42;7.77;;;2.97;;
80675;SDS011;70041;46.088;18.268;2023-07-30T04:30:08;7.40;;;3.50;;
80675;SDS011;70041;46.088;18.268;2023-07-30T04:32:33;7.32;;;3.63;;
80675;SDS011;70041;46.088;18.268;2023-07-30T04:34:59;7.10;;;2.83;;
80675;SDS011;70041;46.088;18.268;2023-07-30T04:37:26;7.75;;;3.13;;
80675;SDS011;70041;46.088;18.268;2023-07-30T04:39:51;8.03;;;3.33;;
80675;SDS011;70041;46.088;18.268;2023-07-30T04:42:17;7.03;;;3.33;;
80675;SDS011;70041;46.088;18.268;2023-07-30T04:44:42;7.50;;;3.37;;
80675;SDS011;70041;46.088;18.268;2023-07-30T04:47:09;6.70;;;3.67;;
80675;SDS011;70041;46.088;18.268;2023-07-30T04:49:34;8.13;;;3.87;;
80675;SDS011;70041;46.088;18.268;2023-07-30T04:52:02;8.00;;;3.50;;
80675;SDS011;70041;46.088;18.268;2023-07-30T04:54:27;7.57;;;3.20;;
80675;SDS011;70041;46.088;18.268;2023-07-30T04:56:52;7.30;;;3.43;;
80675;SDS011;70041;46.088;18.268;2023-07-30T04:59:18;6.40;;;3.07;;
80675;SDS011;70041;46.088;18.268;2023-07-30T05:01:44;7.95;;;3.60;;
80675;SDS011;70041;46.088;18.268;2023-07-30T05:04:09;6.40;;;2.97;;
80675;SDS011;70041;46.088;18.268;2023-07-30T05:06:35;9.63;;;3.10;;
80675;SDS011;70041;46.088;18.268;2023-07-30T05:09:00;6.85;;;3.00;;
80675;SDS011;70041;46.088;18.268;2023-07-30T05:11:25;7.47;;;3.00;;
80675;SDS011;70041;46.088;18.268;2023-07-30T05:13:51;6.57;;;3.30;;
80675;SDS011;70041;46.088;18.268;2023-07-30T05:16:16;9.63;;;3.40;;
80675;SDS011;70041;46.088;18.268;2023-07-30T05:18:41;7.73;;;3.30;;
80675;SDS011;70041;46.088;18.268;2023-07-30T05:21:07;7.13;;;3.40;;
80675;SDS011;70041;46.088;18.268;2023-07-30T05:23:32;6.20;;;3.20;;
80675;SDS011;70041;46.088;18.268;2023-07-30T05:25:58;7.80;;;3.40;;
80675;SDS011;70041;46.088;18.268;2023-07-30T05:28:23;5.93;;;2.83;;
80675;SDS011;70041;46.088;18.268;2023-07-30T05:30:48;6.73;;;3.10;;
80675;SDS011;70041;46.088;18.268;2023-07-30T05:33:14;6.55;;;2.83;;
80675;SDS011;70041;46.088;18.268;2023-07-30T05:35:39;6.93;;;2.70;;
80675;SDS011;70041;46.088;18.268;2023-07-30T05:38:05;7.27;;;3.10;;
80675;SDS011;70041;46.088;18.268;2023-07-30T05:40:30;6.87;;;3.33;;
80675;SDS011;70041;46.088;18.268;2023-07-30T05:42:56;7.00;;;2.70;;
80675;SDS011;70041;46.088;18.268;2023-07-30T05:45:21;7.97;;;3.07;;
80675;SDS011;70041;46.088;18.268;2023-07-30T05:47:46;7.93;;;2.67;;
80675;SDS011;70041;46.088;18.268;2023-07-30T05:50:12;7.17;;;3.27;;
80675;SDS011;70041;46.088;18.268;2023-07-30T05:52:37;5.87;;;2.40;;
80675;SDS011;70041;46.088;18.268;2023-07-30T05:55:03;8.23;;;2.70;;
80675;SDS011;70041;46.088;18.268;2023-07-30T05:57:28;6.63;;;2.40;;
80675;SDS011;70041;46.088;18.268;2023-07-30T05:59:55;5.97;;;2.22;;
80675;SDS011;70041;46.088;18.268;2023-07-30T06:02:20;4.87;;;1.90;;
80675;SDS011;70041;46.088;18.268;2023-07-30T06:04:45;5.07;;;2.20;;
80675;SDS011;70041;46.088;18.268;2023-07-30T06:07:11;5.30;;;2.30;;
80675;SDS011;70041;46.088;18.268;2023-07-30T06:09:36;7.27;;;2.30;;
80675;SDS011;70041;46.088;18.268;2023-07-30T06:12:01;7.07;;;2.47;;
80675;SDS011;70041;46.088;18.268;2023-07-30T06:14:27;5.50;;;2.40;;
80675;SDS011;70041;46.088;18.268;2023-07-30T06:16:53;5.43;;;2.13;;
80675;SDS011;70041;46.088;18.268;2023-07-30T06:19:19;6.17;;;2.40;;
80675;SDS011;70041;46.088;18.268;2023-07-30T06:21:44;5.53;;;2.20;;
80675;SDS011;70041;46.088;18.268;2023-07-30T06:24:10;5.90;;;2.70;;
80675;SDS011;70041;46.088;18.268;2023-07-30T06:26:36;5.30;;;2.40;;
80675;SDS011;70041;46.088;18.268;2023-07-30T06:29:01;6.30;;;2.37;;
80675;SDS011;70041;46.088;18.268;2023-07-30T06:31:27;5.40;;;2.20;;
80675;SDS011;70041;46.088;18.268;2023-07-30T06:33:52;8.13;;;2.53;;
80675;SDS011;70041;46.088;18.268;2023-07-30T06:36:18;5.77;;;2.60;;
80675;SDS011;70041;46.088;18.268;2023-07-30T06:38:43;7.37;;;2.37;;
80675;SDS011;70041;46.088;18.268;2023-07-30T06:41:09;5.53;;;2.17;;
80675;SDS011;70041;46.088;18.268;2023-07-30T06:43:34;6.33;;;2.60;;
80675;SDS011;70041;46.088;18.268;2023-07-30T06:45:59;6.90;;;2.30;;
80675;SDS011;70041;46.088;18.268;2023-07-30T06:48:25;5.13;;;2.30;;
80675;SDS011;70041;46.088;18.268;2023-07-30T06:50:50;6.05;;;2.40;;
80675;SDS011;70041;46.088;18.268;2023-07-30T06:53:16;7.03;;;2.30;;
80675;SDS011;70041;46.088;18.268;2023-07-30T06:55:41;7.67;;;2.33;;
80675;SDS011;70041;46.088;18.268;2023-07-30T06:58:07;5.63;;;2.07;;
80675;SDS011;70041;46.088;18.268;2023-07-30T07:00:32;5.63;;;1.90;;
80675;SDS011;70041;46.088;18.268;2023-07-30T07:02:57;6.88;;;2.10;;
80675;SDS011;70041;46.088;18.268;2023-07-30T07:05:23;5.97;;;2.23;;
80675;SDS011;70041;46.088;18.268;2023-07-30T07:07:49;5.37;;;2.10;;
80675;SDS011;70041;46.088;18.268;2023-07-30T07:10:14;6.10;;;2.30;;
80675;SDS011;70041;46.088;18.268;2023-07-30T07:12:40;5.87;;;2.20;;
80675;SDS011;70041;46.088;18.268;2023-07-30T07:15:06;7.20;;;2.30;;
80675;SDS011;70041;46.088;18.268;2023-07-30T07:17:31;6.20;;;2.05;;
80675;SDS011;70041;46.088;18.268;2023-07-30T07:19:57;6.20;;;2.23;;
80675;SDS011;70041;46.088;18.268;2023-07-30T07:22:23;6.07;;;2.40;;
80675;SDS011;70041;46.088;18.268;2023-07-30T07:24:48;5.07;;;2.30;;
80675;SDS011;70041;46.088;18.268;2023-07-30T07:27:14;7.07;;;2.37;;
80675;SDS011;70041;46.088;18.268;2023-07-30T07:29:39;5.60;;;2.60;;
80675;SDS011;70041;46.088;18.268;2023-07-30T07:32:05;5.43;;;2.40;;
80675;SDS011;70041;46.088;18.268;2023-07-30T07:34:31;6.45;;;2.40;;
80675;SDS011;70041;46.088;18.268;2023-07-30T07:36:56;6.00;;;2.37;;
80675;SDS011;70041;46.088;18.268;2023-07-30T07:39:21;6.90;;;2.63;;
80675;SDS011;70041;46.088;18.268;2023-07-30T07:41:47;6.20;;;2.27;;
80675;SDS011;70041;46.088;18.268;2023-07-30T07:44:12;5.97;;;2.80;;
80675;SDS011;70041;46.088;18.268;2023-07-30T07:46:38;8.10;;;2.50;;
80675;SDS011;70041;46.088;18.268;2023-07-30T07:49:03;4.77;;;2.03;;
80675;SDS011;70041;46.088;18.268;2023-07-30T07:51:28;6.10;;;2.60;;
80675;SDS011;70041;46.088;18.268;2023-07-30T07:53:54;6.30;;;2.47;;
80675;SDS011;70041;46.088;18.268;2023-07-30T07:56:19;6.20;;;2.80;;
80675;SDS011;70041;46.088;18.268;2023-07-30T07:58:45;6.07;;;2.50;;
80675;SDS011;70041;46.088;18.268;2023-07-30T08:01:10;6.30;;;2.70;;
80675;SDS011;70041;46.088;18.268;2023-07-30T08:03:36;7.40;;;3.10;;
80675;SDS011;70041;46.088;18.268;2023-07-30T08:06:01;6.73;;;2.80;;
80675;SDS011;70041;46.088;18.268;2023-07-30T08:08:26;6.83;;;3.00;;
80675;SDS011;70041;46.088;18.268;2023-07-30T08:10:52;6.80;;;3.17;;
80675;SDS011;70041;46.088;18.268;2023-07-30T08:13:18;7.13;;;2.90;;
80675;SDS011;70041;46.088;18.268;2023-07-30T08:15:43;6.70;;;3.00;;
80675;SDS011;70041;46.088;18.268;2023-07-30T08:18:09;6.47;;;2.70;;
80675;SDS011;70041;46.088;18.268;2023-07-30T08:20:34;5.77;;;2.67;;
80675;SDS011;70041;46.088;18.268;2023-07-30T08:23:00;7.03;;;2.80;;
80675;SDS011;70041;46.088;18.268;2023-07-30T08:25:25;6.20;;;2.67;;
80675;SDS011;70041;46.088;18.268;2023-07-30T08:27:50;6.77;;;2.70;;
80675;SDS011;70041;46.088;18.268;2023-07-30T08:30:16;7.73;;;2.90;;
80675;SDS011;70041;46.088;18.268;2023-07-30T08:32:41;7.73;;;3.13;;
80675;SDS011;70041;46.088;18.268;2023-07-30T08:35:08;7.07;;;2.80;;
80675;SDS011;70041;46.088;18.268;2023-07-30T08:37:34;6.15;;;2.83;;
80675;SDS011;70041;46.088;18.268;2023-07-30T08:39:59;6.50;;;2.73;;
80675;SDS011;70041;46.088;18.268;2023-07-30T08:42:25;5.13;;;2.27;;
80675;SDS011;70041;46.088;18.268;2023-07-30T08:44:50;5.00;;;2.10;;
80675;SDS011;70041;46.088;18.268;2023-07-30T08:47:16;8.60;;;2.57;;
80675;SDS011;70041;46.088;18.268;2023-07-30T08:49:41;6.90;;;2.80;;
80675;SDS011;70041;46.088;18.268;2023-07-30T08:52:09;6.97;;;2.70;;
80675;SDS011;70041;46.088;18.268;2023-07-30T08:54:36;7.05;;;3.03;;
80675;SDS011;70041;46.088;18.268;2023-07-30T08:57:03;7.45;;;2.65;;
80675;SDS011;70041;46.088;18.268;2023-07-30T08:59:37;6.30;;;2.80;;
80675;SDS011;70041;46.088;18.268;2023-07-30T09:02:18;6.17;;;2.60;;
80675;SDS011;70041;46.088;18.268;2023-07-30T09:04:48;6.43;;;2.63;;
80675;SDS011;70041;46.088;18.268;2023-07-30T09:07:18;8.05;;;2.70;;
80675;SDS011;70041;46.088;18.268;2023-07-30T09:09:44;6.73;;;2.40;;
80675;SDS011;70041;46.088;18.268;2023-07-30T09:12:14;6.60;;;2.75;;
80675;SDS011;70041;46.088;18.268;2023-07-30T09:14:39;10.45;;;2.50;;
80675;SDS011;70041;46.088;18.268;2023-07-30T09:17:05;11.90;;;3.13;;
80675;SDS011;70041;46.088;18.268;2023-07-30T09:19:34;7.10;;;2.40;;
80675;SDS011;70041;46.088;18.268;2023-07-30T09:22:03;9.27;;;2.95;;
80675;SDS011;70041;46.088;18.268;2023-07-30T09:24:30;8.07;;;3.05;;
80675;SDS011;70041;46.088;18.268;2023-07-30T09:26:55;7.20;;;2.63;;
80675;SDS011;70041;46.088;18.268;2023-07-30T09:29:26;11.77;;;3.40;;
80675;SDS011;70041;46.088;18.268;2023-07-30T09:31:52;7.00;;;2.50;;
80675;SDS011;70041;46.088;18.268;2023-07-30T09:34:22;6.95;;;2.80;;
80675;SDS011;70041;46.088;18.268;2023-07-30T09:36:51;5.88;;;2.40;;
80675;SDS011;70041;46.088;18.268;2023-07-30T09:41:50;6.43;;;2.83;;
80675;SDS011;70041;46.088;18.268;2023-07-30T09:44:17;7.07;;;2.35;;
80675;SDS011;70041;46.088;18.268;2023-07-30T09:46:45;7.00;;;2.40;;
80675;SDS011;70041;46.088;18.268;2023-07-30T09:49:12;6.20;;;2.67;;
80675;SDS011;70041;46.088;18.268;2023-07-30T09:51:37;6.93;;;2.30;;
80675;SDS011;70041;46.088;18.268;2023-07-30T09:54:07;6.10;;;2.60;;
80675;SDS011;70041;46.088;18.268;2023-07-30T09:56:34;5.90;;;2.25;;
80675;SDS011;70041;46.088;18.268;2023-07-30T09:59:01;6.10;;;2.40;;
80675;SDS011;70041;46.088;18.268;2023-07-30T10:01:26;5.83;;;2.10;;
80675;SDS011;70041;46.088;18.268;2023-07-30T10:03:55;6.45;;;2.50;;
80675;SDS011;70041;46.088;18.268;2023-07-30T10:06:21;6.10;;;2.40;;
80675;SDS011;70041;46.088;18.268;2023-07-30T10:08:50;6.80;;;2.55;;
80675;SDS011;70041;46.088;18.268;2023-07-30T10:11:17;5.05;;;2.13;;
80675;SDS011;70041;46.088;18.268;2023-07-30T10:13:45;5.88;;;2.38;;
80675;SDS011;70041;46.088;18.268;2023-07-30T10:16:11;6.55;;;2.70;;
80675;SDS011;70041;46.088;18.268;2023-07-30T10:18:40;5.83;;;2.60;;
80675;SDS011;70041;46.088;18.268;2023-07-30T10:21:07;5.70;;;2.38;;
80675;SDS011;70041;46.088;18.268;2023-07-30T10:23:46;5.93;;;2.25;;
80675;SDS011;70041;46.088;18.268;2023-07-30T10:26:30;5.50;;;2.38;;
80675;SDS011;70041;46.088;18.268;2023-07-30T10:31:55;7.05;;;2.13;;
80675;SDS011;70041;46.088;18.268;2023-07-30T10:34:21;5.53;;;2.15;;
80675;SDS011;70041;46.088;18.268;2023-07-30T10:36:50;7.72;;;2.40;;
80675;SDS011;70041;46.088;18.268;2023-07-30T10:41:44;6.87;;;2.80;;
80675;SDS011;70041;46.088;18.268;2023-07-30T10:44:18;6.97;;;2.75;;
80675;SDS011;70041;46.088;18.268;2023-07-30T10:46:44;7.10;;;2.83;;
80675;SDS011;70041;46.088;18.268;2023-07-30T10:49:10;6.07;;;2.60;;
80675;SDS011;70041;46.088;18.268;2023-07-30T10:51:37;6.30;;;2.67;;
80675;SDS011;70041;46.088;18.268;2023-07-30T10:54:05;6.10;;;2.40;;
80675;SDS011;70041;46.088;18.268;2023-07-30T10:56:32;6.50;;;2.60;;
80675;SDS011;70041;46.088;18.268;2023-07-30T10:59:00;6.57;;;2.70;;
80675;SDS011;70041;46.088;18.268;2023-07-30T11:01:29;6.10;;;2.60;;
80675;SDS011;70041;46.088;18.268;2023-07-30T11:03:55;5.83;;;2.10;;
80675;SDS011;70041;46.088;18.268;2023-07-30T11:06:24;5.60;;;2.20;;
80675;SDS011;70041;46.088;18.268;2023-07-30T11:08:51;5.95;;;2.63;;
80675;SDS011;70041;46.088;18.268;2023-07-30T11:11:16;5.57;;;2.50;;
80675;SDS011;70041;46.088;18.268;2023-07-30T11:13:42;7.30;;;3.13;;
80675;SDS011;70041;46.088;18.268;2023-07-30T11:16:11;5.75;;;2.35;;
80675;SDS011;70041;46.088;18.268;2023-07-30T11:18:38;6.20;;;2.38;;
80675;SDS011;70041;46.088;18.268;2023-07-30T11:23:37;6.78;;;2.60;;
80675;SDS011;70041;46.088;18.268;2023-07-30T11:26:05;7.70;;;2.57;;
80675;SDS011;70041;46.088;18.268;2023-07-30T11:28:36;6.93;;;2.90;;
80675;SDS011;70041;46.088;18.268;2023-07-30T11:31:13;5.68;;;2.50;;
80675;SDS011;70041;46.088;18.268;2023-07-30T11:33:41;6.57;;;2.90;;
80675;SDS011;70041;46.088;18.268;2023-07-30T11:36:12;5.93;;;2.40;;
80675;SDS011;70041;46.088;18.268;2023-07-30T11:38:41;6.57;;;2.50;;
80675;SDS011;70041;46.088;18.268;2023-07-30T11:41:07;6.78;;;2.70;;
80675;SDS011;70041;46.088;18.268;2023-07-30T11:43:38;5.88;;;2.58;;
80675;SDS011;70041;46.088;18.268;2023-07-30T11:46:08;6.60;;;2.63;;
80675;SDS011;70041;46.088;18.268;2023-07-30T11:48:48;6.38;;;2.78;;
80675;SDS011;70041;46.088;18.268;2023-07-30T11:53:59;7.00;;;2.90;;
80675;SDS011;70041;46.088;18.268;2023-07-30T11:56:27;5.97;;;2.38;;
80675;SDS011;70041;46.088;18.268;2023-07-30T11:58:58;6.85;;;2.60;;
80675;SDS011;70041;46.088;18.268;2023-07-30T12:01:26;6.30;;;2.80;;
80675;SDS011;70041;46.088;18.268;2023-07-30T12:03:55;5.43;;;2.63;;
80675;SDS011;70041;46.088;18.268;2023-07-30T12:09:21;6.40;;;2.65;;
80675;SDS011;70041;46.088;18.268;2023-07-30T12:11:49;5.70;;;2.50;;
80675;SDS011;70041;46.088;18.268;2023-07-30T12:14:19;6.10;;;2.58;;
80675;SDS011;70041;46.088;18.268;2023-07-30T12:16:47;7.37;;;2.60;;
80675;SDS011;70041;46.088;18.268;2023-07-30T12:19:12;5.57;;;2.25;;
80675;SDS011;70041;46.088;18.268;2023-07-30T12:21:37;5.23;;;2.33;;
80675;SDS011;70041;46.088;18.268;2023-07-30T12:24:03;9.60;;;2.40;;
80675;SDS011;70041;46.088;18.268;2023-07-30T12:26:28;5.50;;;2.17;;
80675;SDS011;70041;46.088;18.268;2023-07-30T12:28:54;6.63;;;2.50;;
80675;SDS011;70041;46.088;18.268;2023-07-30T12:31:19;6.23;;;2.80;;
80675;SDS011;70041;46.088;18.268;2023-07-30T12:33:45;7.53;;;2.33;;
80675;SDS011;70041;46.088;18.268;2023-07-30T12:36:10;6.10;;;2.70;;
80675;SDS011;70041;46.088;18.268;2023-07-30T12:38:36;5.47;;;2.50;;
80675;SDS011;70041;46.088;18.268;2023-07-30T12:41:01;5.97;;;2.30;;
80675;SDS011;70041;46.088;18.268;2023-07-30T12:43:26;6.00;;;2.27;;
80675;SDS011;70041;46.088;18.268;2023-07-30T12:45:52;6.33;;;2.47;;
80675;SDS011;70041;46.088;18.268;2023-07-30T12:48:17;5.57;;;2.47;;
80675;SDS011;70041;46.088;18.268;2023-07-30T12:50:43;5.63;;;2.27;;
80675;SDS011;70041;46.088;18.268;2023-07-30T12:53:08;5.90;;;2.20;;
80675;SDS011;70041;46.088;18.268;2023-07-30T12:55:34;6.28;;;2.33;;
80675;SDS011;70041;46.088;18.268;2023-07-30T12:57:59;4.97;;;2.10;;
80675;SDS011;70041;46.088;18.268;2023-07-30T13:00:25;5.00;;;2.10;;
80675;SDS011;70041;46.088;18.268;2023-07-30T13:02:50;5.30;;;2.10;;
80675;SDS011;70041;46.088;18.268;2023-07-30T13:05:20;4.60;;;2.10;;
80675;SDS011;70041;46.088;18.268;2023-07-30T13:07:46;7.47;;;2.33;;
80675;SDS011;70041;46.088;18.268;2023-07-30T13:10:11;5.80;;;2.40;;
80675;SDS011;70041;46.088;18.268;2023-07-30T13:12:37;6.57;;;2.70;;
80675;SDS011;70041;46.088;18.268;2023-07-30T13:15:02;5.93;;;2.60;;
80675;SDS011;70041;46.088;18.268;2023-07-30T13:17:28;5.45;;;2.10;;
80675;SDS011;70041;46.088;18.268;2023-07-30T13:19:54;5.07;;;2.17;;
80675;SDS011;70041;46.088;18.268;2023-07-30T13:22:19;5.60;;;2.20;;
80675;SDS011;70041;46.088;18.268;2023-07-30T13:24:45;6.28;;;2.08;;
80675;SDS011;70041;46.088;18.268;2023-07-30T13:27:10;5.93;;;2.20;;
80675;SDS011;70041;46.088;18.268;2023-07-30T13:29:36;5.23;;;2.40;;
80675;SDS011;70041;46.088;18.268;2023-07-30T13:32:01;5.17;;;2.27;;
80675;SDS011;70041;46.088;18.268;2023-07-30T13:34:27;5.30;;;2.17;;
80675;SDS011;70041;46.088;18.268;2023-07-30T13:36:52;5.73;;;2.57;;
80675;SDS011;70041;46.088;18.268;2023-07-30T13:39:18;5.73;;;2.90;;
80675;SDS011;70041;46.088;18.268;2023-07-30T13:41:43;6.32;;;2.42;;
80675;SDS011;70041;46.088;18.268;2023-07-30T13:44:09;6.93;;;2.77;;
80675;SDS011;70041;46.088;18.268;2023-07-30T13:46:36;5.72;;;2.60;;
80675;SDS011;70041;46.088;18.268;2023-07-30T13:49:02;5.40;;;2.37;;
80675;SDS011;70041;46.088;18.268;2023-07-30T13:51:27;5.53;;;2.40;;
80675;SDS011;70041;46.088;18.268;2023-07-30T13:53:57;7.07;;;2.63;;
80675;SDS011;70041;46.088;18.268;2023-07-30T13:56:24;5.43;;;2.50;;
80675;SDS011;70041;46.088;18.268;2023-07-30T13:58:50;5.90;;;2.40;;
80675;SDS011;70041;46.088;18.268;2023-07-30T14:01:15;5.30;;;2.30;;
80675;SDS011;70041;46.088;18.268;2023-07-30T14:03:40;6.17;;;2.63;;
80675;SDS011;70041;46.088;18.268;2023-07-30T14:06:06;5.60;;;2.20;;
80675;SDS011;70041;46.088;18.268;2023-07-30T14:08:31;5.32;;;2.38;;
80675;SDS011;70041;46.088;18.268;2023-07-30T14:10:56;5.20;;;2.20;;
80675;SDS011;70041;46.088;18.268;2023-07-30T14:13:23;5.20;;;2.05;;
80675;SDS011;70041;46.088;18.268;2023-07-30T14:15:49;6.17;;;2.27;;
80675;SDS011;70041;46.088;18.268;2023-07-30T14:18:15;4.93;;;2.00;;
80675;SDS011;70041;46.088;18.268;2023-07-30T14:20:40;4.80;;;2.00;;
80675;SDS011;70041;46.088;18.268;2023-07-30T14:23:06;5.57;;;2.33;;
80675;SDS011;70041;46.088;18.268;2023-07-30T14:25:32;4.37;;;2.00;;
80675;SDS011;70041;46.088;18.268;2023-07-30T14:28:18;5.00;;;2.10;;
80675;SDS011;70041;46.088;18.268;2023-07-30T14:30:43;5.03;;;1.93;;
80675;SDS011;70041;46.088;18.268;2023-07-30T14:33:12;5.03;;;2.20;;
80675;SDS011;70041;46.088;18.268;2023-07-30T14:35:38;5.63;;;2.35;;
80675;SDS011;70041;46.088;18.268;2023-07-30T14:38:05;4.95;;;2.00;;
80675;SDS011;70041;46.088;18.268;2023-07-30T14:40:30;5.70;;;2.10;;
80675;SDS011;70041;46.088;18.268;2023-07-30T14:42:56;4.38;;;2.05;;